sensor_id;sensor_type;location;lat;lon;timestamp;temperature;humidity
5924;DHT22;2987;50.884;14.818;2023-10-09T07:51:43;9.70;99.90
5924;DHT22;2987;50.884;14.818;2023-10-09T07:54:10;9.70;99.90
5924;DHT22;2987;50.884;14.818;2023-10-09T07:56:42;9.60;99.90
5924;DHT22;2987;50.884;14.818;2023-10-09T07:59:13;9.60;99.90
5924;DHT22;2987;50.884;14.818;2023-10-09T08:01:41;9.70;99.90
5924;DHT22;2987;50.884;14.818;2023-10-09T08:04:28;9.70;99.90
5924;DHT22;2987;50.884;14.818;2023-10-09T08:07:15;9.50;99.90
5924;DHT22;2987;50.884;14.818;2023-10-09T08:09:46;9.60;99.90
5924;DHT22;2987;50.884;14.818;2023-10-09T08:12:14;9.70;99.90
5924;DHT22;2987;50.884;14.818;2023-10-09T08:14:41;9.60;99.90
5924;DHT22;2987;50.884;14.818;2023-10-09T08:17:09;9.70;99.90
5924;DHT22;2987;50.884;14.818;2023-10-09T08:19:47;9.60;99.90
5924;DHT22;2987;50.884;14.818;2023-10-09T08:22:21;9.60;99.90
5924;DHT22;2987;50.884;14.818;2023-10-09T08:25:07;9.70;99.90
5924;DHT22;2987;50.884;14.818;2023-10-09T08:27:33;10.00;99.90
5924;DHT22;2987;50.884;14.818;2023-10-09T08:30:19;9.50;99.90
5924;DHT22;2987;50.884;14.818;2023-10-09T08:32:55;9.70;99.90
5924;DHT22;2987;50.884;14.818;2023-10-09T08:35:28;9.70;99.90
5924;DHT22;2987;50.884;14.818;2023-10-09T08:37:59;9.60;99.90
5924;DHT22;2987;50.884;14.818;2023-10-09T08:40:36;9.40;99.90
5924;DHT22;2987;50.884;14.818;2023-10-09T08:43:21;9.50;99.90
5924;DHT22;2987;50.884;14.818;2023-10-09T08:45:51;9.70;99.90
5924;DHT22;2987;50.884;14.818;2023-10-09T08:48:19;9.60;99.90
5924;DHT22;2987;50.884;14.818;2023-10-09T08:50:49;9.90;99.90
5924;DHT22;2987;50.884;14.818;2023-10-09T08:53:17;9.90;99.90
5924;DHT22;2987;50.884;14.818;2023-10-09T08:55:44;10.00;99.90
5924;DHT22;2987;50.884;14.818;2023-10-09T08:58:10;9.90;99.90
5924;DHT22;2987;50.884;14.818;2023-10-09T09:00:55;10.00;99.90
5924;DHT22;2987;50.884;14.818;2023-10-09T09:03:24;10.00;99.90
5924;DHT22;2987;50.884;14.818;2023-10-09T09:06:00;9.90;99.90
5924;DHT22;2987;50.884;14.818;2023-10-09T09:08:28;10.00;99.90
5924;DHT22;2987;50.884;14.818;2023-10-09T09:11:05;10.00;99.90
5924;DHT22;2987;50.884;14.818;2023-10-09T09:13:41;9.80;99.90
5924;DHT22;2987;50.884;14.818;2023-10-09T09:16:16;9.80;99.90
5924;DHT22;2987;50.884;14.818;2023-10-09T09:19:04;9.80;99.90
5924;DHT22;2987;50.884;14.818;2023-10-09T09:21:49;9.80;99.90
5924;DHT22;2987;50.884;14.818;2023-10-09T09:24:20;9.90;99.90
5924;DHT22;2987;50.884;14.818;2023-10-09T09:26:47;9.90;99.90
5924;DHT22;2987;50.884;14.818;2023-10-09T09:29:40;9.90;99.90
5924;DHT22;2987;50.884;14.818;2023-10-09T09:32:09;9.90;99.90
5924;DHT22;2987;50.884;14.818;2023-10-09T09:34:53;10.00;99.90
5924;DHT22;2987;50.884;14.818;2023-10-09T09:37:22;10.10;99.90
5924;DHT22;2987;50.884;14.818;2023-10-09T09:39:58;10.30;99.90
5924;DHT22;2987;50.884;14.818;2023-10-09T09:42:28;10.30;99.90
5924;DHT22;2987;50.884;14.818;2023-10-09T09:44:58;10.30;99.90
5924;DHT22;2987;50.884;14.818;2023-10-09T09:47:27;10.20;99.90
5924;DHT22;2987;50.884;14.818;2023-10-09T09:49:54;10.30;99.90
5924;DHT22;2987;50.884;14.818;2023-10-09T09:52:37;10.30;99.90
5924;DHT22;2987;50.884;14.818;2023-10-09T09:55:07;10.20;99.90
5924;DHT22;2987;50.884;14.818;2023-10-09T09:57:54;10.40;99.90
5924;DHT22;2987;50.884;14.818;2023-10-09T10:00:25;10.50;99.90
5924;DHT22;2987;50.884;14.818;2023-10-09T10:03:12;10.30;99.90
5924;DHT22;2987;50.884;14.818;2023-10-09T10:05:42;10.50;99.90
5924;DHT22;2987;50.884;14.818;2023-10-09T10:08:17;10.30;99.90
5924;DHT22;2987;50.884;14.818;2023-10-09T10:10:44;10.40;99.90
5924;DHT22;2987;50.884;14.818;2023-10-09T10:13:16;10.40;99.90
5924;DHT22;2987;50.884;14.818;2023-10-09T10:15:58;10.60;99.90
5924;DHT22;2987;50.884;14.818;2023-10-09T10:18:33;10.60;99.90
5924;DHT22;2987;50.884;14.818;2023-10-09T10:21:17;10.60;99.90
5924;DHT22;2987;50.884;14.818;2023-10-09T10:23:44;10.60;99.90
5924;DHT22;2987;50.884;14.818;2023-10-09T10:26:18;10.60;99.90
5924;DHT22;2987;50.884;14.818;2023-10-09T10:29:15;10.90;99.90
5924;DHT22;2987;50.884;14.818;2023-10-09T10:31:56;11.00;99.90
5924;DHT22;2987;50.884;14.818;2023-10-09T10:34:24;10.80;99.90
5924;DHT22;2987;50.884;14.818;2023-10-09T10:36:51;10.90;99.90
5924;DHT22;2987;50.884;14.818;2023-10-09T10:39:25;10.90;99.90
5924;DHT22;2987;50.884;14.818;2023-10-09T10:42:14;11.30;99.90
5924;DHT22;2987;50.884;14.818;2023-10-09T10:45:01;11.10;99.90
5924;DHT22;2987;50.884;14.818;2023-10-09T10:47:28;11.10;99.90
5924;DHT22;2987;50.884;14.818;2023-10-09T10:50:02;11.10;99.90
5924;DHT22;2987;50.884;14.818;2023-10-09T10:52:48;11.30;99.90
5924;DHT22;2987;50.884;14.818;2023-10-09T10:55:23;11.30;99.90
5924;DHT22;2987;50.884;14.818;2023-10-09T10:58:17;11.40;99.90
5924;DHT22;2987;50.884;14.818;2023-10-09T11:00:54;11.20;99.90
5924;DHT22;2987;50.884;14.818;2023-10-09T11:03:38;11.30;99.90
5924;DHT22;2987;50.884;14.818;2023-10-09T11:06:29;11.10;99.90
5924;DHT22;2987;50.884;14.818;2023-10-09T11:09:05;11.10;99.90
5924;DHT22;2987;50.884;14.818;2023-10-09T11:11:36;11.40;99.90
5924;DHT22;2987;50.884;14.818;2023-10-09T11:14:13;11.10;99.90
5924;DHT22;2987;50.884;14.818;2023-10-09T11:16:41;11.10;99.90
5924;DHT22;2987;50.884;14.818;2023-10-09T11:19:12;11.00;99.90
5924;DHT22;2987;50.884;14.818;2023-10-09T11:21:58;11.10;99.90
5924;DHT22;2987;50.884;14.818;2023-10-09T11:24:48;11.10;99.90
5924;DHT22;2987;50.884;14.818;2023-10-09T11:27:27;11.10;99.90
5924;DHT22;2987;50.884;14.818;2023-10-09T11:29:58;11.10;99.90
5924;DHT22;2987;50.884;14.818;2023-10-09T11:32:40;11.30;99.90
5924;DHT22;2987;50.884;14.818;2023-10-09T11:35:13;11.10;99.90
5924;DHT22;2987;50.884;14.818;2023-10-09T11:37:55;11.40;99.90
5924;DHT22;2987;50.884;14.818;2023-10-09T11:43:08;11.30;99.90
5924;DHT22;2987;50.884;14.818;2023-10-09T11:45:39;11.30;99.90
5924;DHT22;2987;50.884;14.818;2023-10-09T11:48:21;11.40;99.90
5924;DHT22;2987;50.884;14.818;2023-10-09T11:50:59;11.40;99.90
5924;DHT22;2987;50.884;14.818;2023-10-09T11:53:44;11.30;99.90
5924;DHT22;2987;50.884;14.818;2023-10-09T11:56:16;11.40;99.90
5924;DHT22;2987;50.884;14.818;2023-10-09T11:58:48;11.40;99.90
5924;DHT22;2987;50.884;14.818;2023-10-09T12:01:16;11.70;99.90
5924;DHT22;2987;50.884;14.818;2023-10-09T12:03:46;11.80;99.90
5924;DHT22;2987;50.884;14.818;2023-10-09T12:06:17;11.50;99.90
5924;DHT22;2987;50.884;14.818;2023-10-09T12:08:49;11.60;99.90
5924;DHT22;2987;50.884;14.818;2023-10-09T12:13:49;11.70;99.90
5924;DHT22;2987;50.884;14.818;2023-10-09T12:16:15;11.70;99.90
5924;DHT22;2987;50.884;14.818;2023-10-09T12:18:41;11.70;99.90
5924;DHT22;2987;50.884;14.818;2023-10-09T12:21:09;11.70;99.90
5924;DHT22;2987;50.884;14.818;2023-10-09T12:23:41;11.70;99.90
5924;DHT22;2987;50.884;14.818;2023-10-09T12:26:10;11.70;99.90
5924;DHT22;2987;50.884;14.818;2023-10-09T12:28:41;11.80;99.90
5924;DHT22;2987;50.884;14.818;2023-10-09T12:31:13;11.80;99.90
5924;DHT22;2987;50.884;14.818;2023-10-09T12:33:41;11.80;99.90
5924;DHT22;2987;50.884;14.818;2023-10-09T12:36:15;11.80;99.90
5924;DHT22;2987;50.884;14.818;2023-10-09T12:38:47;11.80;99.90
5924;DHT22;2987;50.884;14.818;2023-10-09T12:41:18;11.80;99.90
5924;DHT22;2987;50.884;14.818;2023-10-09T12:43:52;11.90;99.90
5924;DHT22;2987;50.884;14.818;2023-10-09T12:46:19;11.90;99.90
5924;DHT22;2987;50.884;14.818;2023-10-09T12:48:49;11.90;99.90
5924;DHT22;2987;50.884;14.818;2023-10-09T12:51:15;12.10;99.90
5924;DHT22;2987;50.884;14.818;2023-10-09T12:53:43;11.90;99.90
5924;DHT22;2987;50.884;14.818;2023-10-09T12:56:10;12.00;99.90
5924;DHT22;2987;50.884;14.818;2023-10-09T12:58:38;11.90;99.90
5924;DHT22;2987;50.884;14.818;2023-10-09T13:01:04;12.00;99.90
5924;DHT22;2987;50.884;14.818;2023-10-09T13:03:38;12.00;99.90
5924;DHT22;2987;50.884;14.818;2023-10-09T13:06:04;11.60;99.90
5924;DHT22;2987;50.884;14.818;2023-10-09T13:08:36;12.00;99.90
5924;DHT22;2987;50.884;14.818;2023-10-09T13:11:08;11.90;99.90
5924;DHT22;2987;50.884;14.818;2023-10-09T13:13:39;11.60;99.90
5924;DHT22;2987;50.884;14.818;2023-10-09T13:16:07;12.10;99.90
5924;DHT22;2987;50.884;14.818;2023-10-09T13:18:34;11.80;99.90
5924;DHT22;2987;50.884;14.818;2023-10-09T13:21:01;11.80;99.90
5924;DHT22;2987;50.884;14.818;2023-10-09T13:23:31;11.80;99.90
5924;DHT22;2987;50.884;14.818;2023-10-09T13:26:06;12.00;99.90
5924;DHT22;2987;50.884;14.818;2023-10-09T13:28:46;11.90;99.90
5924;DHT22;2987;50.884;14.818;2023-10-09T13:31:14;12.20;99.90
5924;DHT22;2987;50.884;14.818;2023-10-09T13:33:42;12.00;99.90
5924;DHT22;2987;50.884;14.818;2023-10-09T13:36:10;12.00;99.90
5924;DHT22;2987;50.884;14.818;2023-10-09T13:38:46;12.00;99.90
5924;DHT22;2987;50.884;14.818;2023-10-09T13:41:13;12.00;99.90
5924;DHT22;2987;50.884;14.818;2023-10-09T13:43:39;12.00;99.90
5924;DHT22;2987;50.884;14.818;2023-10-09T13:46:08;12.10;99.90
5924;DHT22;2987;50.884;14.818;2023-10-09T13:48:35;12.10;99.90
5924;DHT22;2987;50.884;14.818;2023-10-09T13:51:10;12.20;99.90
5924;DHT22;2987;50.884;14.818;2023-10-09T13:53:41;12.00;99.90
5924;DHT22;2987;50.884;14.818;2023-10-09T13:56:12;12.00;99.90
5924;DHT22;2987;50.884;14.818;2023-10-09T13:58:41;12.00;99.90
5924;DHT22;2987;50.884;14.818;2023-10-09T14:01:10;12.00;99.90
5924;DHT22;2987;50.884;14.818;2023-10-09T14:03:36;12.00;99.90
5924;DHT22;2987;50.884;14.818;2023-10-09T14:06:05;12.00;99.90
5924;DHT22;2987;50.884;14.818;2023-10-09T14:08:38;11.90;99.90
5924;DHT22;2987;50.884;14.818;2023-10-09T14:11:08;11.90;99.90
5924;DHT22;2987;50.884;14.818;2023-10-09T14:13:40;12.00;99.90
5924;DHT22;2987;50.884;14.818;2023-10-09T14:16:06;11.90;99.90
5924;DHT22;2987;50.884;14.818;2023-10-09T14:18:33;12.10;99.90
5924;DHT22;2987;50.884;14.818;2023-10-09T14:21:01;11.90;99.90
5924;DHT22;2987;50.884;14.818;2023-10-09T14:23:31;11.90;99.90
5924;DHT22;2987;50.884;14.818;2023-10-09T14:26:00;12.10;99.90
5924;DHT22;2987;50.884;14.818;2023-10-09T14:28:28;11.90;99.90
5924;DHT22;2987;50.884;14.818;2023-10-09T14:30:55;12.00;99.90
5924;DHT22;2987;50.884;14.818;2023-10-09T14:33:26;12.10;99.90
5924;DHT22;2987;50.884;14.818;2023-10-09T14:35:54;11.80;99.90
5924;DHT22;2987;50.884;14.818;2023-10-09T14:38:20;12.00;99.90
5924;DHT22;2987;50.884;14.818;2023-10-09T14:43:26;12.00;99.90
5924;DHT22;2987;50.884;14.818;2023-10-09T14:45:59;12.00;99.90
5924;DHT22;2987;50.884;14.818;2023-10-09T14:48:25;12.10;99.90
5924;DHT22;2987;50.884;14.818;2023-10-09T14:50:53;12.10;99.90
5924;DHT22;2987;50.884;14.818;2023-10-09T14:53:20;12.10;99.90
5924;DHT22;2987;50.884;14.818;2023-10-09T14:55:46;12.10;99.90
5924;DHT22;2987;50.884;14.818;2023-10-09T15:00:41;12.20;99.90
5924;DHT22;2987;50.884;14.818;2023-10-09T15:03:13;12.20;99.90
5924;DHT22;2987;50.884;14.818;2023-10-09T15:05:41;12.10;99.90
5924;DHT22;2987;50.884;14.818;2023-10-09T15:08:08;12.20;99.90
5924;DHT22;2987;50.884;14.818;2023-10-09T15:10:48;12.40;99.90
5924;DHT22;2987;50.884;14.818;2023-10-09T15:13:15;12.10;99.90
5924;DHT22;2987;50.884;14.818;2023-10-09T15:15:44;12.10;99.90
5924;DHT22;2987;50.884;14.818;2023-10-09T15:18:11;12.10;99.90
5924;DHT22;2987;50.884;14.818;2023-10-09T15:20:39;12.10;99.90
5924;DHT22;2987;50.884;14.818;2023-10-09T15:23:07;12.10;99.90
5924;DHT22;2987;50.884;14.818;2023-10-09T15:25:34;12.20;99.90
5924;DHT22;2987;50.884;14.818;2023-10-09T15:28:01;12.10;99.90
5924;DHT22;2987;50.884;14.818;2023-10-09T15:30:29;12.20;99.90
5924;DHT22;2987;50.884;14.818;2023-10-09T15:32:57;12.10;99.90
5924;DHT22;2987;50.884;14.818;2023-10-09T15:35:23;12.10;99.90
5924;DHT22;2987;50.884;14.818;2023-10-09T15:37:50;12.10;99.90
5924;DHT22;2987;50.884;14.818;2023-10-09T15:40:18;12.10;99.90
5924;DHT22;2987;50.884;14.818;2023-10-09T15:42:50;12.10;99.90
5924;DHT22;2987;50.884;14.818;2023-10-09T15:45:17;12.10;99.90
5924;DHT22;2987;50.884;14.818;2023-10-09T15:47:48;12.10;99.90
5924;DHT22;2987;50.884;14.818;2023-10-09T15:50:17;12.10;99.90
5924;DHT22;2987;50.884;14.818;2023-10-09T15:52:43;12.00;99.90
5924;DHT22;2987;50.884;14.818;2023-10-09T15:55:09;12.10;99.90
5924;DHT22;2987;50.884;14.818;2023-10-09T15:57:40;12.10;99.90
5924;DHT22;2987;50.884;14.818;2023-10-09T16:00:08;12.10;99.90
5924;DHT22;2987;50.884;14.818;2023-10-09T16:02:54;12.00;99.90
5924;DHT22;2987;50.884;14.818;2023-10-09T16:05:21;12.00;99.90
5924;DHT22;2987;50.884;14.818;2023-10-09T16:07:52;12.10;99.90
5924;DHT22;2987;50.884;14.818;2023-10-09T16:10:19;12.00;99.90
5924;DHT22;2987;50.884;14.818;2023-10-09T16:12:46;12.20;99.90
5924;DHT22;2987;50.884;14.818;2023-10-09T16:15:13;12.10;99.90
5924;DHT22;2987;50.884;14.818;2023-10-09T16:17:41;12.00;99.90
5924;DHT22;2987;50.884;14.818;2023-10-09T16:20:09;12.00;99.90
5924;DHT22;2987;50.884;14.818;2023-10-09T16:22:48;12.00;99.90
5924;DHT22;2987;50.884;14.818;2023-10-09T16:25:15;12.00;99.90
5924;DHT22;2987;50.884;14.818;2023-10-09T16:27:43;11.90;99.90
5924;DHT22;2987;50.884;14.818;2023-10-09T16:30:16;11.90;99.90
5924;DHT22;2987;50.884;14.818;2023-10-09T16:32:50;11.90;99.90
5924;DHT22;2987;50.884;14.818;2023-10-09T16:35:17;11.90;99.90
5924;DHT22;2987;50.884;14.818;2023-10-09T16:37:43;11.90;99.90
5924;DHT22;2987;50.884;14.818;2023-10-09T16:40:09;12.10;99.90
5924;DHT22;2987;50.884;14.818;2023-10-09T16:42:39;12.10;99.90
5924;DHT22;2987;50.884;14.818;2023-10-09T16:45:09;11.90;99.90
5924;DHT22;2987;50.884;14.818;2023-10-09T16:47:49;11.90;99.90
5924;DHT22;2987;50.884;14.818;2023-10-09T16:50:21;11.90;99.90
5924;DHT22;2987;50.884;14.818;2023-10-09T16:52:54;11.90;99.90
5924;DHT22;2987;50.884;14.818;2023-10-09T16:55:21;12.10;99.90
5924;DHT22;2987;50.884;14.818;2023-10-09T16:57:50;11.90;99.90
5924;DHT22;2987;50.884;14.818;2023-10-09T17:00:18;11.90;99.90
5924;DHT22;2987;50.884;14.818;2023-10-09T17:02:56;11.90;99.90
5924;DHT22;2987;50.884;14.818;2023-10-09T17:05:23;11.90;99.90
5924;DHT22;2987;50.884;14.818;2023-10-09T17:08:08;12.10;99.90
5924;DHT22;2987;50.884;14.818;2023-10-09T17:10:36;12.00;99.90
5924;DHT22;2987;50.884;14.818;2023-10-09T17:13:11;11.80;99.90
5924;DHT22;2987;50.884;14.818;2023-10-09T17:15:37;12.10;99.90
5924;DHT22;2987;50.884;14.818;2023-10-09T17:18:04;11.80;99.90
5924;DHT22;2987;50.884;14.818;2023-10-09T17:20:39;11.80;99.90
5924;DHT22;2987;50.884;14.818;2023-10-09T17:23:06;11.80;99.90
5924;DHT22;2987;50.884;14.818;2023-10-09T17:25:37;12.00;99.90
5924;DHT22;2987;50.884;14.818;2023-10-09T17:28:10;12.10;99.90
5924;DHT22;2987;50.884;14.818;2023-10-09T17:30:45;12.10;99.90
5924;DHT22;2987;50.884;14.818;2023-10-09T17:33:15;11.90;99.90
5924;DHT22;2987;50.884;14.818;2023-10-09T17:35:46;11.90;99.90
5924;DHT22;2987;50.884;14.818;2023-10-09T17:38:12;11.90;99.90
5924;DHT22;2987;50.884;14.818;2023-10-09T17:40:45;12.00;99.90
5924;DHT22;2987;50.884;14.818;2023-10-09T17:43:20;11.90;99.90
5924;DHT22;2987;50.884;14.818;2023-10-09T17:45:47;11.90;99.90
5924;DHT22;2987;50.884;14.818;2023-10-09T17:48:14;12.00;99.90
5924;DHT22;2987;50.884;14.818;2023-10-09T17:50:44;11.80;99.90
5924;DHT22;2987;50.884;14.818;2023-10-09T17:53:11;12.00;99.90
5924;DHT22;2987;50.884;14.818;2023-10-09T17:55:37;12.10;99.90
5924;DHT22;2987;50.884;14.818;2023-10-09T17:58:05;11.80;99.90
5924;DHT22;2987;50.884;14.818;2023-10-09T18:00:38;11.90;99.90
5924;DHT22;2987;50.884;14.818;2023-10-09T18:03:06;11.90;99.90
5924;DHT22;2987;50.884;14.818;2023-10-09T18:05:33;11.90;99.90
5924;DHT22;2987;50.884;14.818;2023-10-09T18:08:00;11.90;99.90
5924;DHT22;2987;50.884;14.818;2023-10-09T18:10:32;11.90;99.90
5924;DHT22;2987;50.884;14.818;2023-10-09T18:12:58;11.90;99.90
5924;DHT22;2987;50.884;14.818;2023-10-09T18:15:25;11.90;99.90
5924;DHT22;2987;50.884;14.818;2023-10-09T18:17:55;11.90;99.90
5924;DHT22;2987;50.884;14.818;2023-10-09T18:20:22;11.90;99.90
5924;DHT22;2987;50.884;14.818;2023-10-09T18:22:48;11.90;99.90
5924;DHT22;2987;50.884;14.818;2023-10-09T18:25:16;11.90;99.90
5924;DHT22;2987;50.884;14.818;2023-10-09T18:27:44;12.00;99.90
5924;DHT22;2987;50.884;14.818;2023-10-09T18:30:12;11.90;99.90
5924;DHT22;2987;50.884;14.818;2023-10-09T18:32:39;11.80;99.90
5924;DHT22;2987;50.884;14.818;2023-10-09T18:35:06;11.90;99.90
5924;DHT22;2987;50.884;14.818;2023-10-09T18:37:36;12.00;99.90
5924;DHT22;2987;50.884;14.818;2023-10-09T18:40:08;12.10;99.90
5924;DHT22;2987;50.884;14.818;2023-10-09T18:42:37;12.00;99.90
5924;DHT22;2987;50.884;14.818;2023-10-09T18:45:06;11.90;99.90
5924;DHT22;2987;50.884;14.818;2023-10-09T18:47:33;12.00;99.90
5924;DHT22;2987;50.884;14.818;2023-10-09T18:50:08;12.00;99.90
5924;DHT22;2987;50.884;14.818;2023-10-09T18:52:38;11.90;99.90
5924;DHT22;2987;50.884;14.818;2023-10-09T18:55:12;11.90;99.90
5924;DHT22;2987;50.884;14.818;2023-10-09T18:57:39;12.10;99.90
5924;DHT22;2987;50.884;14.818;2023-10-09T19:00:08;11.90;99.90
5924;DHT22;2987;50.884;14.818;2023-10-09T19:02:38;11.90;99.90
5924;DHT22;2987;50.884;14.818;2023-10-09T19:05:05;11.90;99.90
5924;DHT22;2987;50.884;14.818;2023-10-09T19:07:34;11.90;99.90
5924;DHT22;2987;50.884;14.818;2023-10-09T19:10:02;11.90;99.90
5924;DHT22;2987;50.884;14.818;2023-10-09T19:12:28;12.10;99.90
5924;DHT22;2987;50.884;14.818;2023-10-09T19:14:54;11.90;99.90
5924;DHT22;2987;50.884;14.818;2023-10-09T19:17:21;11.90;99.90
5924;DHT22;2987;50.884;14.818;2023-10-09T19:19:46;11.90;99.90
5924;DHT22;2987;50.884;14.818;2023-10-09T19:22:12;11.90;99.90
5924;DHT22;2987;50.884;14.818;2023-10-09T19:24:41;11.90;99.90
5924;DHT22;2987;50.884;14.818;2023-10-09T19:27:08;11.90;99.90
5924;DHT22;2987;50.884;14.818;2023-10-09T19:29:36;12.00;99.90
5924;DHT22;2987;50.884;14.818;2023-10-09T19:32:02;11.90;99.90
5924;DHT22;2987;50.884;14.818;2023-10-09T19:34:28;11.90;99.90
5924;DHT22;2987;50.884;14.818;2023-10-09T19:36:54;11.90;99.90
5924;DHT22;2987;50.884;14.818;2023-10-09T19:39:20;11.80;99.90
5924;DHT22;2987;50.884;14.818;2023-10-09T19:41:48;12.10;99.90
5924;DHT22;2987;50.884;14.818;2023-10-09T19:44:14;12.10;99.90
5924;DHT22;2987;50.884;14.818;2023-10-09T19:46:40;11.90;99.90
5924;DHT22;2987;50.884;14.818;2023-10-09T19:49:06;12.00;99.90
5924;DHT22;2987;50.884;14.818;2023-10-09T19:51:32;11.90;99.90
5924;DHT22;2987;50.884;14.818;2023-10-09T19:53:58;11.90;99.90
5924;DHT22;2987;50.884;14.818;2023-10-09T19:56:24;11.90;99.90
5924;DHT22;2987;50.884;14.818;2023-10-09T19:58:52;12.00;99.90
5924;DHT22;2987;50.884;14.818;2023-10-09T20:01:19;11.90;99.90
5924;DHT22;2987;50.884;14.818;2023-10-09T20:03:45;12.10;99.90
5924;DHT22;2987;50.884;14.818;2023-10-09T20:06:12;11.80;99.90
5924;DHT22;2987;50.884;14.818;2023-10-09T20:08:41;11.90;99.90
5924;DHT22;2987;50.884;14.818;2023-10-09T20:11:10;12.10;99.90
5924;DHT22;2987;50.884;14.818;2023-10-09T20:13:39;12.10;99.90
5924;DHT22;2987;50.884;14.818;2023-10-09T20:16:05;11.90;99.90
5924;DHT22;2987;50.884;14.818;2023-10-09T20:18:35;11.90;99.90
5924;DHT22;2987;50.884;14.818;2023-10-09T20:21:02;11.90;99.90
5924;DHT22;2987;50.884;14.818;2023-10-09T20:23:32;11.90;99.90
5924;DHT22;2987;50.884;14.818;2023-10-09T20:26:00;11.80;99.90
5924;DHT22;2987;50.884;14.818;2023-10-09T20:28:31;11.90;99.90
5924;DHT22;2987;50.884;14.818;2023-10-09T20:30:57;11.90;99.90
5924;DHT22;2987;50.884;14.818;2023-10-09T20:33:29;12.00;99.90
5924;DHT22;2987;50.884;14.818;2023-10-09T20:36:05;11.90;99.90
5924;DHT22;2987;50.884;14.818;2023-10-09T20:38:32;12.00;99.90
5924;DHT22;2987;50.884;14.818;2023-10-09T20:40:58;12.20;99.90
5924;DHT22;2987;50.884;14.818;2023-10-09T20:43:24;12.10;99.90
5924;DHT22;2987;50.884;14.818;2023-10-09T20:45:53;11.90;99.90
5924;DHT22;2987;50.884;14.818;2023-10-09T20:48:20;11.90;99.90
5924;DHT22;2987;50.884;14.818;2023-10-09T20:50:46;12.00;99.90
5924;DHT22;2987;50.884;14.818;2023-10-09T20:53:13;11.90;99.90
5924;DHT22;2987;50.884;14.818;2023-10-09T20:55:39;12.10;99.90
5924;DHT22;2987;50.884;14.818;2023-10-09T20:58:05;11.90;99.90
5924;DHT22;2987;50.884;14.818;2023-10-09T21:03:03;12.20;99.90
5924;DHT22;2987;50.884;14.818;2023-10-09T21:05:29;11.90;99.90
5924;DHT22;2987;50.884;14.818;2023-10-09T21:07:56;11.90;99.90
5924;DHT22;2987;50.884;14.818;2023-10-09T21:10:22;12.00;99.90
5924;DHT22;2987;50.884;14.818;2023-10-09T21:12:49;11.90;99.90
5924;DHT22;2987;50.884;14.818;2023-10-09T21:15:18;12.00;99.90
5924;DHT22;2987;50.884;14.818;2023-10-09T21:17:47;12.00;99.90
5924;DHT22;2987;50.884;14.818;2023-10-09T21:20:17;12.00;99.90
5924;DHT22;2987;50.884;14.818;2023-10-09T21:22:50;12.10;99.90
5924;DHT22;2987;50.884;14.818;2023-10-09T21:25:21;12.00;99.90
5924;DHT22;2987;50.884;14.818;2023-10-09T21:27:48;12.10;99.90
5924;DHT22;2987;50.884;14.818;2023-10-09T21:30:14;12.00;99.90
5924;DHT22;2987;50.884;14.818;2023-10-09T21:32:43;12.10;99.90
5924;DHT22;2987;50.884;14.818;2023-10-09T21:35:14;12.10;99.90
5924;DHT22;2987;50.884;14.818;2023-10-09T21:37:46;12.00;99.90
5924;DHT22;2987;50.884;14.818;2023-10-09T21:40:14;12.00;99.90
5924;DHT22;2987;50.884;14.818;2023-10-09T21:42:50;12.10;99.90
5924;DHT22;2987;50.884;14.818;2023-10-09T21:45:18;11.80;99.90
5924;DHT22;2987;50.884;14.818;2023-10-09T21:47:45;12.10;99.90
5924;DHT22;2987;50.884;14.818;2023-10-09T21:50:12;12.20;99.90
5924;DHT22;2987;50.884;14.818;2023-10-09T21:52:38;12.10;99.90
5924;DHT22;2987;50.884;14.818;2023-10-09T21:55:06;12.00;99.90
5924;DHT22;2987;50.884;14.818;2023-10-09T21:57:34;12.10;99.90
5924;DHT22;2987;50.884;14.818;2023-10-09T22:00:03;12.40;99.90
5924;DHT22;2987;50.884;14.818;2023-10-09T22:02:38;12.10;99.90
5924;DHT22;2987;50.884;14.818;2023-10-09T22:05:05;12.10;99.90
5924;DHT22;2987;50.884;14.818;2023-10-09T22:07:36;12.20;99.90
5924;DHT22;2987;50.884;14.818;2023-10-09T22:10:03;12.10;99.90
5924;DHT22;2987;50.884;14.818;2023-10-09T22:12:29;12.10;99.90
5924;DHT22;2987;50.884;14.818;2023-10-09T22:14:58;12.10;99.90
5924;DHT22;2987;50.884;14.818;2023-10-09T22:17:27;12.40;99.90
5924;DHT22;2987;50.884;14.818;2023-10-09T22:19:55;12.10;99.90
5924;DHT22;2987;50.884;14.818;2023-10-09T22:22:23;12.20;99.90
5924;DHT22;2987;50.884;14.818;2023-10-09T22:24:49;12.20;99.90
5924;DHT22;2987;50.884;14.818;2023-10-09T22:27:16;12.20;99.90
5924;DHT22;2987;50.884;14.818;2023-10-09T22:29:51;12.20;99.90
5924;DHT22;2987;50.884;14.818;2023-10-09T22:32:19;12.20;99.90
5924;DHT22;2987;50.884;14.818;2023-10-09T22:34:45;12.20;99.90
5924;DHT22;2987;50.884;14.818;2023-10-09T22:37:11;12.30;99.90
5924;DHT22;2987;50.884;14.818;2023-10-09T22:39:44;12.20;99.90
5924;DHT22;2987;50.884;14.818;2023-10-09T22:42:13;12.20;99.90
5924;DHT22;2987;50.884;14.818;2023-10-09T22:44:44;12.40;99.90
5924;DHT22;2987;50.884;14.818;2023-10-09T22:47:10;12.20;99.90
5924;DHT22;2987;50.884;14.818;2023-10-09T22:49:40;12.20;99.90
5924;DHT22;2987;50.884;14.818;2023-10-09T22:52:09;12.50;99.90
5924;DHT22;2987;50.884;14.818;2023-10-09T22:54:37;12.50;99.90
5924;DHT22;2987;50.884;14.818;2023-10-09T22:57:08;12.50;99.90
5924;DHT22;2987;50.884;14.818;2023-10-09T22:59:34;12.20;99.90
5924;DHT22;2987;50.884;14.818;2023-10-09T23:02:20;12.20;99.90
5924;DHT22;2987;50.884;14.818;2023-10-09T23:04:49;12.40;99.90
5924;DHT22;2987;50.884;14.818;2023-10-09T23:07:15;12.20;99.90
5924;DHT22;2987;50.884;14.818;2023-10-09T23:09:43;12.30;99.90
5924;DHT22;2987;50.884;14.818;2023-10-09T23:12:19;12.30;99.90
5924;DHT22;2987;50.884;14.818;2023-10-09T23:14:49;12.30;99.90
5924;DHT22;2987;50.884;14.818;2023-10-09T23:17:17;12.30;99.90
5924;DHT22;2987;50.884;14.818;2023-10-09T23:19:45;12.30;99.90
5924;DHT22;2987;50.884;14.818;2023-10-09T23:22:21;12.30;99.90
5924;DHT22;2987;50.884;14.818;2023-10-09T23:25:07;12.50;99.90
5924;DHT22;2987;50.884;14.818;2023-10-09T23:27:36;12.50;99.90
5924;DHT22;2987;50.884;14.818;2023-10-09T23:30:09;12.50;99.90
5924;DHT22;2987;50.884;14.818;2023-10-09T23:32:40;12.30;99.90
5924;DHT22;2987;50.884;14.818;2023-10-09T23:35:14;12.30;99.90
5924;DHT22;2987;50.884;14.818;2023-10-09T23:37:47;12.30;99.90
5924;DHT22;2987;50.884;14.818;2023-10-09T23:40:33;12.30;99.90
5924;DHT22;2987;50.884;14.818;2023-10-09T23:43:08;12.30;99.90
5924;DHT22;2987;50.884;14.818;2023-10-09T23:45:55;12.40;99.90
5924;DHT22;2987;50.884;14.818;2023-10-09T23:48:24;12.30;99.90
5924;DHT22;2987;50.884;14.818;2023-10-09T23:50:51;12.40;99.90
5924;DHT22;2987;50.884;14.818;2023-10-09T23:53:22;12.40;99.90
5924;DHT22;2987;50.884;14.818;2023-10-09T23:56:00;12.40;99.90
5924;DHT22;2987;50.884;14.818;2023-10-09T23:58:37;12.40;99.90
